Morehead City, North Carolina
Current Conditions -  °F | °C
As of 3:58 AM on Saturday 20 Dec 2014 (Local Time) from KMRH Reporting Station
Clear Clear  
Wind Chill: 42°   Ceiling: Unl
Heat Index: 42°   Visibility: 10mi
Dew Point: 36°   Wind: 0mph
Humidity: 79%   Direction: NA
Pressure: 30.23"   Gusts: NA
Location:  34.72°N, 76.72°W
Report Text: KMRH 200858Z AUTO 00000KT 10SM CLR 06/02 A3023 RMK AO2 SLP237 I1000 I3/// T00560022 52006 TSNO
Loading
Personal Weather Stations






























Interactive Weather Map New forecast layout! Learn more

10-Day Weather Forecast

Advertisements
Track Severe Weather on mobile